Waddinxveen, Netherlands
Current Conditions -  °F | °C
As of 11:25 PM on Sunday 21 Dec 2014 (Local Time) from EHRD Reporting Station
Overcast Overcast  
Wind Chill: 52°   Ceiling: 1300
Heat Index: 52°   Visibility: 6mi
Dew Point: 46°   Wind: 26mph
Humidity: 82%   Direction: 230°SW
Pressure: 30.12"   Gusts: NA
Location:  52.05°N, 4.65°E
Report Text: EHRD 212225Z AUTO 23023KT 9999 OVC013 11/08 Q1020 NOSIG
Loading
Personal Weather Stations






























Interactive Weather Map New forecast layout! Learn more

10-Day Weather Forecast

Advertisements
Track Severe Weather on mobile